Time;durP1;ratioP1;P1;durP2;ratioP2;P2;SDS_P1;SDS_P2;PMS_P1;PMS_P2;Temp;Humidity;BMP_temperature;BMP_pressure;BME280_temperature;BME280_humidity;BME280_pressure;Samples;Min_cycle;Max_cycle;Signal;HPM_P1;HPM_P2
2022/02/09 00:00:39;;;;;;;;;41.50;35.75;;;;;9.54;66.37;102876.28;5040002;28;45620;-82
2022/02/09 00:03:14;;;;;;;;;39.00;34.75;;;;;9.53;65.96;102874.56;5038351;28;45847;-82
2022/02/09 00:08:11;;;;;;;;;45.00;34.75;;;;;9.50;66.32;102872.78;5040898;28;45371;-83
2022/02/09 00:10:40;;;;;;;;;35.50;32.00;;;;;9.49;66.55;102872.75;5039964;28;46219;-83
2022/02/09 00:16:03;;;;;;;;;43.00;35.25;;;;;9.43;66.24;102863.13;5032717;28;45254;-83
2022/02/09 00:21:32;;;;;;;;;36.75;32.00;;;;;9.37;66.44;102853.44;5041140;28;45285;-83
2022/02/09 00:27:02;;;;;;;;;38.75;33.50;;;;;9.31;66.60;102853.41;5032259;28;45380;-85
2022/02/09 00:32:24;;;;;;;;;38.75;32.50;;;;;9.26;66.68;102844.63;5040276;28;45183;-83
2022/02/09 01:51:12;;;;;;;;;31.00;27.00;;;;;8.63;66.83;102828.41;5039949;28;45390;-80
2022/02/09 01:55:28;;;;;;;;;30.25;27.00;;;;;8.61;66.68;102828.41;5039447;28;45464;-80
2022/02/09 01:57:54;;;;;;;;;29.00;26.75;;;;;8.55;66.76;102821.31;5039802;28;46262;-80
2022/02/09 02:00:19;;;;;;;;;30.25;24.50;;;;;8.55;66.74;102829.19;5038857;28;45150;-82
2022/02/09 02:02:45;;;;;;;;;34.00;26.50;;;;;8.51;66.28;102818.66;5036825;28;45352;-81
2022/02/09 02:05:10;;;;;;;;;32.75;27.00;;;;;8.52;66.80;102825.66;5039913;28;45201;-81
2022/02/09 02:10:10;;;;;;;;;29.75;22.75;;;;;8.48;66.62;102823.88;5039022;28;45816;-81
2022/02/09 02:18:17;;;;;;;;;28.00;25.00;;;;;8.42;66.81;102811.59;5007477;28;45478;-81
2022/02/09 02:26:12;;;;;;;;;23.25;20.25;;;;;8.38;66.42;102809.78;5003046;28;45263;-80
2022/02/09 02:28:55;;;;;;;;;33.75;22.75;;;;;8.36;66.74;102806.28;5039518;28;45398;-80
2022/02/09 03:13:29;;;;;;;;;28.25;26.50;;;;;7.98;67.22;102737.78;5037885;28;45417;-82
2022/02/09 03:16:03;;;;;;;;;33.25;27.50;;;;;7.98;67.09;102743.03;5039330;28;45260;-80
2022/02/09 03:23:55;;;;;;;;;24.25;23.50;;;;;7.95;66.99;102729.94;5038717;28;45938;-82
2022/02/09 03:53:44;;;;;;;;;28.00;24.75;;;;;7.72;66.27;102681.69;5037965;28;45525;-81
2022/02/09 03:58:36;;;;;;;;;25.50;25.50;;;;;7.69;66.78;102688.63;5037635;28;45572;-80
2022/02/09 04:01:03;;;;;;;;;31.00;27.75;;;;;7.66;66.60;102684.22;5037715;28;45436;-78
2022/02/09 04:03:28;;;;;;;;;29.75;24.75;;;;;7.63;66.65;102679.84;5029146;28;45422;-78
2022/02/09 04:05:54;;;;;;;;;32.00;25.25;;;;;7.64;66.76;102679.00;5042040;28;45373;-80
2022/02/09 04:08:26;;;;;;;;;28.25;26.50;;;;;7.63;66.72;102682.47;5038939;28;45463;-80
2022/02/09 04:11:02;;;;;;;;;29.00;28.00;;;;;7.62;66.93;102680.72;5047360;28;46061;-80
2022/02/09 04:13:39;;;;;;;;;31.50;28.25;;;;;7.64;66.79;102672.88;5039209;28;45580;-80
2022/02/09 04:16:31;;;;;;;;;31.00;26.00;;;;;7.60;67.12;102671.09;5032805;28;45325;-80
2022/02/09 04:19:07;;;;;;;;;26.50;26.25;;;;;7.62;66.84;102672.88;5030525;28;45781;-79
2022/02/09 04:38:12;;;;;;;;;31.00;25.75;;;;;7.51;66.73;102672.75;5039518;28;45402;-80
2022/02/09 04:50:58;;;;;;;;;29.00;27.75;;;;;7.41;66.92;102663.03;5018211;28;45518;-82
2022/02/09 04:54:15;;;;;;;;;31.00;29.75;;;;;7.41;66.71;102660.41;5040526;28;45293;-82
2022/02/09 04:56:27;;;;;;;;;24.25;23.75;;;;;7.41;67.09;102660.41;5040188;28;46144;-79
2022/02/09 04:59:23;;;;;;;;;30.25;25.50;;;;;7.36;67.03;102657.75;5035983;28;45907;-80
2022/02/09 05:02:04;;;;;;;;;32.75;28.25;;;;;7.36;66.67;102665.59;5032783;28;45488;-82
2022/02/09 05:26:07;;;;;;;;;36.25;28.50;;;;;7.19;66.75;102675.84;5039955;28;46969;-82
2022/02/09 05:28:32;;;;;;;;;28.50;25.75;;;;;7.15;66.78;102682.78;5040054;28;45431;-79
2022/02/09 05:30:58;;;;;;;;;34.50;31.25;;;;;7.13;66.32;102687.13;5037352;28;47026;-78
2022/02/09 05:33:23;;;;;;;;;28.25;26.75;;;;;7.13;66.35;102691.47;5032047;28;45149;-78
2022/02/09 05:35:50;;;;;;;;;32.00;30.00;;;;;7.09;66.69;102687.94;5040301;28;45151;-78
2022/02/09 05:38:17;;;;;;;;;34.50;31.75;;;;;7.06;66.21;102682.69;5039857;28;45272;-77
2022/02/09 05:40:44;;;;;;;;;31.50;28.50;;;;;7.05;66.12;102683.53;5038292;28;45407;-77
2022/02/09 05:43:11;;;;;;;;;36.25;31.75;;;;;7.02;66.10;102688.69;5040433;28;45398;-76
2022/02/09 05:53:24;;;;;;;;;34.25;32.00;;;;;6.88;66.70;102676.34;5036513;28;45479;-79
2022/02/09 05:56:06;;;;;;;;;34.75;30.25;;;;;6.85;66.16;102669.31;5039844;28;45220;-78
2022/02/09 06:00:58;;;;;;;;;29.75;26.75;;;;;6.77;66.42;102683.13;5039435;28;45199;-81
2022/02/09 06:03:23;;;;;;;;;32.00;31.00;;;;;6.75;66.53;102686.59;5040015;28;45423;-81
2022/02/09 06:05:49;;;;;;;;;37.00;32.25;;;;;6.73;66.31;102692.66;5030553;28;45614;-82
2022/02/09 06:08:14;;;;;;;;;31.25;28.00;;;;;6.70;66.52;102687.38;5034513;28;45361;-82
2022/02/09 06:10:45;;;;;;;;;30.50;29.00;;;;;6.69;66.44;102690.88;5043465;28;45356;-82
2022/02/09 06:20:57;;;;;;;;;29.25;26.25;;;;;6.64;66.78;102703.88;5039935;28;45955;-82
2022/02/09 06:23:22;;;;;;;;;33.75;27.75;;;;;6.62;66.66;102701.22;5039218;28;45339;-81
2022/02/09 06:25:48;;;;;;;;;34.25;30.75;;;;;6.57;66.73;102695.03;5020247;28;45532;-81
2022/02/09 06:28:13;;;;;;;;;33.75;25.00;;;;;6.56;66.81;102700.25;5039768;28;46647;-83
2022/02/09 06:30:39;;;;;;;;;31.25;30.00;;;;;6.55;66.52;102701.09;5039958;28;45355;-82
2022/02/09 06:33:04;;;;;;;;;37.00;28.25;;;;;6.55;66.75;102698.47;5039205;28;45370;-82
2022/02/09 06:35:29;;;;;;;;;31.25;29.75;;;;;6.55;66.83;102701.97;5039738;28;45196;-82
2022/02/09 06:37:57;;;;;;;;;30.25;26.75;;;;;6.53;66.55;102693.25;5038754;28;46521;-82
2022/02/09 06:40:22;;;;;;;;;34.25;32.50;;;;;6.51;67.10;102688.00;5039819;28;45314;-82
2022/02/09 06:42:49;;;;;;;;;37.75;32.25;;;;;6.51;67.11;102698.44;5039441;28;45489;-82
2022/02/09 06:45:24;;;;;;;;;28.50;28.00;;;;;6.50;67.06;102691.47;5039484;28;45441;-83
2022/02/09 06:47:50;;;;;;;;;32.50;27.75;;;;;6.49;67.06;102694.94;5039181;28;45366;-83
2022/02/09 06:50:33;;;;;;;;;33.75;32.00;;;;;6.49;66.79;102697.56;5039339;28;45533;-82
2022/02/09 06:53:05;;;;;;;;;30.75;27.00;;;;;6.47;66.78;102686.19;5039656;28;45388;-81
2022/02/09 06:55:33;;;;;;;;;37.25;31.50;;;;;6.48;66.86;102693.16;5021465;28;46348;-84
2022/02/09 06:58:02;;;;;;;;;35.75;33.25;;;;;6.47;66.95;102686.19;5037498;28;47286;-84
2022/02/09 07:00:29;;;;;;;;;39.25;34.00;;;;;6.47;67.22;102694.00;5039353;28;45779;-84
2022/02/09 07:02:55;;;;;;;;;48.75;34.50;;;;;6.46;66.85;102694.88;5039083;28;45236;-81
2022/02/09 07:05:20;;;;;;;;;44.50;32.25;;;;;6.45;67.21;102697.44;5039124;28;45260;-83
2022/02/09 07:07:46;;;;;;;;;33.50;30.00;;;;;6.43;66.84;102697.44;5038840;28;46957;-82
2022/02/09 07:10:12;;;;;;;;;38.00;34.25;;;;;6.43;67.09;102700.06;5037525;28;45328;-82
2022/02/09 07:12:38;;;;;;;;;36.50;32.25;;;;;6.43;67.24;102700.06;5036786;28;45446;-82
2022/02/09 07:15:06;;;;;;;;;38.00;33.00;;;;;6.42;66.84;102695.66;5034444;28;45454;-81
2022/02/09 07:17:32;;;;;;;;;38.75;35.00;;;;;6.44;66.98;102701.81;5034181;28;46430;-82
2022/02/09 07:20:08;;;;;;;;;38.00;31.50;;;;;6.44;66.92;102700.94;5028418;28;45254;-82
2022/02/09 07:22:36;;;;;;;;;39.50;35.00;;;;;6.44;67.42;102701.81;5036196;28;46463;-80
2022/02/09 07:25:16;;;;;;;;;40.00;35.50;;;;;6.44;67.10;102707.06;5035125;28;45610;-80
2022/02/09 07:27:52;;;;;;;;;48.00;36.50;;;;;6.45;67.37;102707.91;5032251;28;46239;-80
2022/02/09 07:30:26;;;;;;;;;38.75;33.25;;;;;6.45;67.61;102716.63;5052039;28;45240;-80
2022/02/09 07:32:56;;;;;;;;;38.75;31.75;;;;;6.48;67.40;102718.41;5038616;28;45408;-80
2022/02/09 07:35:22;;;;;;;;;34.00;33.00;;;;;6.49;67.66;102718.47;5038397;28;45583;-80
2022/02/09 07:37:48;;;;;;;;;45.00;37.75;;;;;6.53;67.59;102719.38;5039925;28;45478;-80
2022/02/09 07:40:15;;;;;;;;;44.00;35.75;;;;;6.52;67.67;102704.53;5041804;28;45630;-80
2022/02/09 07:42:47;;;;;;;;;40.25;36.75;;;;;6.53;67.68;102712.41;5041440;28;45339;-80
2022/02/09 07:48:00;;;;;;;;;37.75;34.00;;;;;6.56;67.93;102706.38;5042143;28;45726;-80
2022/02/09 07:53:06;;;;;;;;;39.75;37.00;;;;;6.60;67.54;102702.94;5042279;28;45436;-79
2022/02/09 07:55:32;;;;;;;;;40.50;35.50;;;;;6.61;67.86;102703.81;5042229;28;45516;-79
2022/02/09 07:57:58;;;;;;;;;51.00;37.25;;;;;6.65;67.52;102708.22;5042023;28;45867;-79
2022/02/09 08:00:23;;;;;;;;;44.50;37.25;;;;;6.63;68.15;102703.00;5050391;28;45904;-79
2022/02/09 08:02:52;;;;;;;;;48.75;38.75;;;;;6.66;67.88;102694.31;5044260;28;45433;-79
2022/02/09 08:05:18;;;;;;;;;47.75;39.00;;;;;6.68;67.86;102697.81;5030982;28;45240;-79
2022/02/09 08:07:43;;;;;;;;;48.50;39.50;;;;;6.70;67.66;102692.63;5041645;28;45291;-79
2022/02/09 08:10:17;;;;;;;;;49.25;42.00;;;;;6.73;68.05;102687.44;5041768;28;45277;-79
2022/02/09 08:28:32;;;;;;;;;46.00;39.00;;;;;6.87;68.24;102682.41;5039593;28;46181;-79
2022/02/09 08:31:22;;;;;;;;;48.00;37.50;;;;;6.90;68.53;102682.47;5041412;28;45410;-79
2022/02/09 08:33:47;;;;;;;;;49.75;39.25;;;;;6.93;68.02;102685.13;5043213;28;45356;-79
2022/02/09 08:36:13;;;;;;;;;50.25;40.25;;;;;6.96;68.68;102679.91;5056214;28;45550;-79
2022/02/09 08:38:42;;;;;;;;;48.75;36.75;;;;;7.00;67.91;102680.84;5017370;28;45971;-79
2022/02/09 08:41:08;;;;;;;;;41.00;37.00;;;;;7.05;67.89;102686.13;5036540;28;45842;-79
2022/02/09 08:43:33;;;;;;;;;42.75;38.00;;;;;7.09;68.65;102680.97;5041423;28;46773;-79
2022/02/09 08:45:58;;;;;;;;;51.00;37.75;;;;;7.10;68.46;102676.63;5036780;28;45312;-79
2022/02/09 08:48:24;;;;;;;;;49.75;39.50;;;;;7.17;68.30;102683.69;5033442;28;46510;-80
2022/02/09 08:50:51;;;;;;;;;47.50;37.00;;;;;7.17;68.40;102680.19;5040927;28;45216;-79
2022/02/09 08:53:19;;;;;;;;;43.75;36.75;;;;;7.20;68.78;102673.28;5041351;28;45338;-79
2022/02/09 08:55:45;;;;;;;;;41.00;35.25;;;;;7.23;68.37;102675.03;5039955;28;45411;-79
2022/02/09 08:58:11;;;;;;;;;42.25;36.00;;;;;7.25;68.18;102665.47;5037287;28;45446;-79
2022/02/09 09:00:38;;;;;;;;;36.75;33.25;;;;;7.27;68.30;102662.88;5040083;28;45251;-80
2022/02/09 09:05:50;;;;;;;;;44.50;35.75;;;;;7.34;68.06;102659.47;5032198;28;45594;-79
2022/02/09 09:08:40;;;;;;;;;43.00;36.25;;;;;7.38;68.22;102655.16;5028010;28;45456;-81
2022/02/09 10:35:10;;;;;;;;;36.50;30.25;;;;;8.63;66.61;102626.56;5039643;28;45314;-80
2022/02/09 10:37:36;;;;;;;;;37.00;32.25;;;;;8.62;66.53;102620.44;5039781;28;45441;-81
2022/02/09 10:40:09;;;;;;;;;40.00;34.50;;;;;8.69;66.49;102617.84;5039382;28;45411;-80
2022/02/09 10:42:55;;;;;;;;;41.75;33.50;;;;;8.72;65.60;102615.22;5039774;28;45214;-81
2022/02/09 10:45:34;;;;;;;;;43.50;34.75;;;;;8.77;66.53;102611.78;5039554;28;45174;-81
2022/02/09 10:48:05;;;;;;;;;47.25;35.25;;;;;8.81;65.80;102612.69;5039420;28;46139;-81
2022/02/09 10:50:33;;;;;;;;;48.00;36.50;;;;;8.85;65.98;102610.94;5039081;28;45810;-81
2022/02/09 10:53:02;;;;;;;;;43.00;37.25;;;;;8.89;65.73;102604.81;5039275;28;45692;-81
2022/02/09 10:55:43;;;;;;;;;48.50;41.00;;;;;8.94;66.10;102599.63;5014350;28;45332;-81
2022/02/09 10:58:17;;;;;;;;;33.50;31.25;;;;;8.97;66.10;102597.88;5039363;28;45474;-81
2022/02/09 11:00:44;;;;;;;;;47.50;38.25;;;;;8.99;65.39;102595.25;5039400;28;45419;-81
2022/02/09 11:03:18;;;;;;;;;44.75;38.00;;;;;9.05;65.03;102591.78;5039256;28;45441;-81
2022/02/09 11:05:49;;;;;;;;;49.50;41.00;;;;;9.09;65.46;102590.91;5039209;28;45323;-81
2022/02/09 11:08:15;;;;;;;;;52.00;41.25;;;;;9.13;64.90;102587.44;5039591;28;45319;-81
2022/02/09 11:10:42;;;;;;;;;51.00;41.25;;;;;9.16;65.36;102587.44;5041484;28;45360;-81
2022/02/09 11:13:11;;;;;;;;;48.25;37.25;;;;;9.20;65.27;102577.84;5041143;28;46335;-81
2022/02/09 11:15:41;;;;;;;;;48.50;37.25;;;;;9.26;65.89;102576.97;5042833;28;45433;-81
2022/02/09 11:18:10;;;;;;;;;45.75;35.00;;;;;9.32;65.78;102572.63;5035748;28;45579;-81
2022/02/09 11:20:54;;;;;;;;;45.00;37.00;;;;;9.39;64.77;102572.59;5042718;28;46003;-82
2022/02/09 11:23:59;;;;;;;;;45.50;36.50;;;;;9.44;64.72;102573.50;5040379;28;45462;-81
2022/02/09 11:29:36;;;;;;;;;45.00;37.50;;;;;9.52;64.87;102563.00;5046611;28;45402;-83
2022/02/09 11:32:48;;;;;;;;;41.00;36.50;;;;;9.59;64.87;102559.50;5041659;28;46043;-83
2022/02/09 11:43:05;;;;;;;;;37.75;32.50;;;;;9.75;64.50;102533.28;5042447;28;46046;-83
2022/02/09 11:46:24;;;;;;;;;38.50;31.50;;;;;9.83;63.83;102533.28;5042866;28;45445;-83
2022/02/09 11:57:37;;;;;;;;;29.75;27.50;;;;;9.98;63.26;102522.72;5051564;28;45451;-82
2022/02/09 12:00:51;;;;;;;;;30.50;27.00;;;;;10.06;63.04;102525.34;5042250;28;45217;-83
2022/02/09 12:13:53;;;;;;;;;27.25;26.00;;;;;10.36;62.36;102514.75;5041672;28;46261;-84
2022/02/09 12:19:48;;;;;;;;;29.25;24.75;;;;;10.44;61.55;102509.47;4999882;28;45397;-84
2022/02/09 12:22:26;;;;;;;;;30.00;25.00;;;;;10.50;61.58;102506.81;4996471;28;45417;-84
2022/02/09 12:24:56;;;;;;;;;24.00;22.00;;;;;10.54;60.74;102505.94;5022168;28;45505;-84
2022/02/09 12:27:21;;;;;;;;;24.50;21.75;;;;;10.56;60.64;102498.94;5040728;28;45843;-84
2022/02/09 12:29:58;;;;;;;;;22.00;22.00;;;;;10.63;61.05;102502.41;5040040;28;45540;-84
2022/02/09 12:32:29;;;;;;;;;22.00;19.75;;;;;10.67;60.83;102495.34;5042229;28;45497;-84
2022/02/09 12:34:57;;;;;;;;;24.75;21.50;;;;;10.71;60.66;102494.47;5040615;28;46155;-84
2022/02/09 12:37:23;;;;;;;;;21.25;20.25;;;;;10.75;60.50;102493.56;5041343;28;45484;-84
2022/02/09 12:39:58;;;;;;;;;22.50;22.00;;;;;10.76;60.44;102481.31;5040681;28;45453;-84
2022/02/09 12:42:29;;;;;;;;;26.25;24.50;;;;;10.80;60.47;102480.41;5041344;28;45406;-84
2022/02/09 12:45:00;;;;;;;;;26.50;25.00;;;;;10.85;58.64;102481.25;5041188;28;45348;-84
2022/02/09 12:47:34;;;;;;;;;26.75;23.00;;;;;10.85;59.59;102477.72;5040590;28;45780;-84
2022/02/09 12:50:02;;;;;;;;;25.25;24.25;;;;;10.88;59.16;102477.72;5023278;28;45445;-84
2022/02/09 12:52:31;;;;;;;;;27.25;23.50;;;;;10.91;59.66;102470.66;5041331;28;45174;-84
2022/02/09 12:55:09;;;;;;;;;22.75;20.50;;;;;10.94;59.24;102459.25;5041456;28;45436;-84
2022/02/09 12:57:40;;;;;;;;;25.75;24.00;;;;;10.98;59.48;102462.75;5040534;28;45887;-84
2022/02/09 13:00:20;;;;;;;;;26.75;23.25;;;;;11.02;59.58;102459.22;5039892;28;45457;-84
2022/02/09 13:02:46;;;;;;;;;28.25;25.00;;;;;11.07;58.93;102460.06;5037224;28;45537;-84
2022/02/09 13:05:12;;;;;;;;;25.75;23.50;;;;;11.07;59.26;102454.78;5040355;28;46235;-83
2022/02/09 13:07:38;;;;;;;;;27.25;26.75;;;;;11.13;59.00;102438.97;5040364;28;45443;-83
2022/02/09 13:10:04;;;;;;;;;30.00;26.25;;;;;11.18;59.15;102436.31;5040210;28;45498;-83
2022/02/09 13:12:31;;;;;;;;;30.00;27.25;;;;;11.23;58.95;102431.00;5041253;28;46586;-82
2022/02/09 13:15:13;;;;;;;;;23.00;23.00;;;;;11.25;58.62;102438.00;5036564;28;45446;-83
2022/02/09 13:22:12;;;;;;;;;26.50;24.75;;;;;11.33;58.53;102427.38;5038934;28;45642;-83
2022/02/09 14:57:01;;;;;;;;;25.75;21.25;;;;;12.17;57.28;102339.56;5039574;28;45414;-83
2022/02/09 15:02:02;;;;;;;;;25.25;21.25;;;;;12.20;57.30;102328.97;5038716;28;45521;-83
2022/02/09 15:08:08;;;;;;;;;22.00;20.75;;;;;12.23;57.47;102326.28;5039357;28;45240;-83
2022/02/09 15:23:03;;;;;;;;;13.50;13.50;;;;;12.24;57.07;102313.09;5038944;28;45543;-83
2022/02/09 15:25:33;;;;;;;;;20.75;20.25;;;;;12.25;56.93;102312.19;5039393;28;45354;-83
2022/02/09 15:28:00;;;;;;;;;16.25;16.00;;;;;12.26;57.04;102311.31;5039221;28;45210;-83
2022/02/09 15:30:28;;;;;;;;;18.50;18.25;;;;;12.27;57.16;102310.38;5039615;28;45274;-82
2022/02/09 15:32:56;;;;;;;;;15.00;15.00;;;;;12.30;57.17;102308.63;5038435;28;45397;-83
2022/02/09 15:35:32;;;;;;;;;18.00;17.50;;;;;12.29;56.59;102314.78;5039068;28;45390;-83
2022/02/09 15:38:08;;;;;;;;;19.50;16.50;;;;;12.29;57.35;102315.66;5039110;28;45647;-83
2022/02/09 15:40:39;;;;;;;;;23.00;15.75;;;;;12.29;56.87;102313.03;5039396;28;45252;-83
2022/02/09 15:56:47;;;;;;;;;19.00;17.50;;;;;12.26;56.70;102299.88;5038876;28;45851;-83
2022/02/09 15:59:22;;;;;;;;;17.25;16.25;;;;;12.26;56.66;102290.22;5041258;28;45876;-83
2022/02/09 16:09:52;;;;;;;;;19.00;15.25;;;;;12.21;56.69;102275.34;5042304;28;45531;-83
2022/02/09 16:18:51;;;;;;;;;18.75;18.00;;;;;12.13;56.75;102268.44;5041591;28;45229;-83
2022/02/09 16:23:12;;;;;;;;;22.00;17.25;;;;;12.13;56.79;102262.28;5041669;28;45592;-83
2022/02/09 16:46:50;;;;;;;;;17.75;16.25;;;;;11.98;57.02;102263.34;5040893;28;45402;-83
2022/02/09 16:49:26;;;;;;;;;23.25;18.50;;;;;11.97;57.23;102261.63;5041590;28;45472;-83
2022/02/09 16:51:59;;;;;;;;;21.00;19.00;;;;;11.96;56.93;102254.59;5041557;28;45644;-83
2022/02/09 16:57:07;;;;;;;;;21.75;20.75;;;;;11.93;57.19;102255.50;5028533;28;45390;-83
2022/02/09 17:21:31;;;;;;;;;21.00;17.25;;;;;11.68;57.49;102245.34;5017777;28;47043;-83
2022/02/09 17:24:02;;;;;;;;;23.75;20.75;;;;;11.62;57.77;102246.28;5040650;28;45288;-83
2022/02/09 17:26:29;;;;;;;;;24.50;21.50;;;;;11.59;57.91;102243.66;5041329;28;45441;-83
2022/02/09 17:29:00;;;;;;;;;17.00;16.75;;;;;11.53;57.89;102241.13;5040344;28;45501;-83
2022/02/09 17:34:19;;;;;;;;;20.75;19.00;;;;;11.43;58.13;102238.59;5038720;28;45273;-83
2022/02/09 17:58:08;;;;;;;;;28.00;24.25;;;;;10.91;59.04;102240.94;5036018;28;45407;-83
2022/02/09 18:00:34;;;;;;;;;24.75;21.00;;;;;10.87;59.78;102241.84;5036521;28;45458;-83
2022/02/09 18:02:59;;;;;;;;;24.00;24.00;;;;;10.81;59.62;102245.44;5040214;28;45410;-83
2022/02/09 18:08:07;;;;;;;;;27.50;24.75;;;;;10.72;59.82;102253.41;5034108;28;45320;-83
2022/02/09 18:29:16;;;;;;;;;35.75;31.25;;;;;10.25;61.02;102254.59;5036679;28;45341;-82
2022/02/09 19:04:07;;;;;;;;;51.75;41.25;;;;;9.63;62.60;102230.44;5017665;28;45505;-83
2022/02/09 19:15:17;;;;;;;;;60.00;46.25;;;;;9.51;62.82;102220.00;5037013;28;45217;-82
2022/02/09 19:17:07;;;;;;;;;57.75;43.75;;;;;9.47;62.82;102213.03;5019528;28;45426;-82
2022/02/09 19:30:28;;;;;;;;;60.75;47.75;;;;;9.29;63.13;102201.72;5036243;28;45464;-82
2022/02/09 19:46:13;;;;;;;;;60.25;48.75;;;;;9.07;63.44;102200.06;5041716;28;45372;-83
2022/02/09 19:48:42;;;;;;;;;65.00;50.25;;;;;9.04;63.84;102199.22;5041668;28;45556;-82
2022/02/09 19:53:56;;;;;;;;;59.75;46.00;;;;;8.98;63.60;102200.97;5042287;28;45301;-84
2022/02/09 19:56:24;;;;;;;;;61.25;49.75;;;;;8.95;63.69;102200.09;5040035;28;45470;-83
2022/02/09 19:59:00;;;;;;;;;65.00;49.50;;;;;8.91;63.82;102194.00;5039829;28;46106;-86
2022/02/09 20:01:36;;;;;;;;;65.25;50.50;;;;;8.92;63.95;102200.09;5051977;28;46018;-87
2022/02/09 20:04:04;;;;;;;;;63.00;49.75;;;;;8.89;63.93;102198.34;5018829;28;45447;-88
2022/02/09 20:06:30;;;;;;;;;65.00;51.25;;;;;8.83;63.98;102191.41;5023361;28;47242;-87
2022/02/09 20:08:56;;;;;;;;;73.75;54.25;;;;;8.81;64.25;102192.28;5033837;28;46588;-88
2022/02/09 20:11:21;;;;;;;;;67.25;53.00;;;;;8.76;64.09;102184.41;5040940;28;45252;-82
2022/02/09 20:13:47;;;;;;;;;71.75;56.50;;;;;8.76;64.23;102189.66;5041591;28;45259;-82
2022/02/09 20:16:13;;;;;;;;;68.00;54.25;;;;;8.71;64.09;102189.69;5041687;28;45421;-82
2022/02/09 20:18:39;;;;;;;;;69.50;53.25;;;;;8.70;64.45;102184.41;5040676;28;45514;-82
2022/02/09 20:21:05;;;;;;;;;72.75;55.25;;;;;8.65;64.34;102173.94;5040006;28;45370;-82
2022/02/09 20:23:33;;;;;;;;;71.25;55.50;;;;;8.65;64.41;102176.56;5041989;28;45316;-82
2022/02/09 20:26:01;;;;;;;;;70.00;55.00;;;;;8.60;64.76;102170.44;5038518;28;45279;-82
2022/02/09 20:28:27;;;;;;;;;69.00;54.75;;;;;8.59;64.93;102173.97;5031118;28;46203;-82
2022/02/09 20:31:01;;;;;;;;;71.75;53.75;;;;;8.57;64.81;102165.19;5039072;28;45526;-82
2022/02/09 20:33:30;;;;;;;;;72.00;55.00;;;;;8.53;64.96;102169.56;5016404;28;45262;-81
2022/02/09 20:35:55;;;;;;;;;75.00;56.25;;;;;8.52;64.40;102168.69;5035571;28;45715;-80
2022/02/09 20:38:25;;;;;;;;;67.75;54.00;;;;;8.53;65.08;102172.19;5041340;28;45507;-80
2022/02/09 20:40:57;;;;;;;;;69.75;54.25;;;;;8.48;64.53;102174.81;5040796;28;45154;-80
2022/02/09 20:43:24;;;;;;;;;71.50;54.25;;;;;8.47;64.66;102174.81;5023244;28;45398;-80
2022/02/09 20:45:53;;;;;;;;;72.00;55.25;;;;;8.47;65.08;102173.03;5035987;28;45459;-80
2022/02/09 20:48:25;;;;;;;;;76.00;60.00;;;;;8.45;65.40;102166.94;5036274;28;45630;-83
2022/02/09 20:50:52;;;;;;;;;74.50;57.25;;;;;8.40;64.57;102161.72;5041466;28;45163;-80
2022/02/09 20:53:18;;;;;;;;;79.75;64.00;;;;;8.39;65.04;102166.97;5023921;28;45562;-81
2022/02/09 20:55:46;;;;;;;;;75.50;59.50;;;;;8.39;65.06;102166.97;5035851;28;45792;-81
2022/02/09 20:58:12;;;;;;;;;73.75;56.00;;;;;8.36;65.17;102167.84;5022533;28;48274;-81
2022/02/09 21:00:53;;;;;;;;;74.00;57.00;;;;;8.33;65.36;102176.56;5029664;28;45839;-77
2022/02/09 21:13:23;;;;;;;;;69.00;53.75;;;;;8.29;65.32;102184.44;5041025;28;45650;-77
2022/02/09 21:23:31;;;;;;;;;70.50;54.25;;;;;8.20;65.54;102169.56;5034210;28;45467;-80
2022/02/09 21:52:36;;;;;;;;;70.25;55.00;;;;;8.02;65.78;102173.94;5040405;28;45338;-80
2022/02/09 22:00:44;;;;;;;;;66.50;52.50;;;;;7.98;65.54;102180.03;5038881;28;45517;-80
2022/02/09 22:28:03;;;;;;;;;45.75;35.50;;;;;8.38;67.37;102175.69;4991645;28;45460;-80
2022/02/09 22:54:56;;;;;;;;;51.50;38.00;;;;;9.38;66.25;102128.25;5032272;28;45312;-78
2022/02/09 22:57:36;;;;;;;;;45.75;36.75;;;;;9.42;66.09;102140.47;5029737;28;45953;-79
2022/02/09 23:00:13;;;;;;;;;50.00;40.00;;;;;9.49;66.08;102132.53;5033210;28;45470;-78
2022/02/09 23:02:42;;;;;;;;;54.50;42.25;;;;;9.52;65.92;102122.91;5038328;28;45503;-79
2022/02/09 23:08:28;;;;;;;;;56.00;42.75;;;;;9.61;66.08;102132.47;5037901;28;45982;-78
2022/02/09 23:13:44;;;;;;;;;57.50;43.75;;;;;9.70;65.52;102122.78;4996208;28;45465;-79
2022/02/09 23:16:23;;;;;;;;;50.25;40.75;;;;;9.76;65.79;102122.72;5046518;28;46121;-79
2022/02/09 23:20:00;;;;;;;;;51.75;42.00;;;;;9.78;65.72;102119.22;5035492;28;45226;-79
2022/02/09 23:54:18;;;;;;;;;48.75;37.50;;;;;10.12;65.01;102111.97;5039080;28;45312;-82
